createdAt,value
2023-01-03T00:00:49.395Z,11.04
2023-01-03T00:03:17.198Z,10.20
2023-01-03T00:05:45.239Z,9.69
2023-01-03T00:08:12.542Z,10.22
2023-01-03T00:10:39.018Z,10.77
2023-01-03T00:13:05.730Z,10.74
2023-01-03T00:15:35.797Z,9.81
2023-01-03T00:18:02.597Z,9.97
2023-01-03T00:20:29.016Z,10.25
2023-01-03T00:22:55.417Z,10.37
2023-01-03T00:25:22.215Z,10.68
2023-01-03T00:27:48.604Z,9.96
2023-01-03T00:30:15.130Z,9.97
2023-01-03T00:32:41.582Z,10.39
2023-01-03T00:35:08.560Z,10.46
2023-01-03T00:37:35.003Z,10.01
2023-01-03T00:40:01.854Z,11.01
2023-01-03T00:42:28.369Z,10.77
2023-01-03T00:44:54.871Z,9.97
2023-01-03T00:47:21.304Z,10.67
2023-01-03T00:49:47.743Z,9.81
2023-01-03T00:52:14.143Z,10.16
2023-01-03T00:54:40.578Z,10.24
2023-01-03T00:57:07.035Z,10.91
2023-01-03T00:59:33.432Z,10.60
2023-01-03T01:01:59.931Z,10.35
2023-01-03T01:04:28.118Z,9.82
2023-01-03T01:07:04.033Z,10.24
2023-01-03T01:09:36.619Z,10.06
2023-01-03T01:12:05.016Z,10.17
2023-01-03T01:14:33.412Z,10.42
2023-01-03T01:17:05.772Z,10.01
2023-01-03T01:19:39.154Z,9.62
2023-01-03T01:22:06.501Z,9.77
2023-01-03T01:24:33.397Z,9.57
2023-01-03T01:27:00.035Z,10.56
2023-01-03T01:29:27.133Z,10.11
2023-01-03T01:31:53.682Z,10.04
2023-01-03T01:34:20.453Z,9.64
2023-01-03T01:36:47.873Z,10.03
2023-01-03T01:39:17.619Z,9.53
2023-01-03T01:42:04.007Z,10.46
2023-01-03T01:44:48.583Z,9.87
2023-01-03T01:47:30.687Z,9.59
2023-01-03T01:50:07.230Z,9.90
2023-01-03T01:52:38.051Z,10.38
2023-01-03T01:55:07.913Z,9.68
2023-01-03T01:57:37.182Z,9.42
2023-01-03T02:00:06.033Z,9.93
2023-01-03T02:02:32.759Z,10.61
2023-01-03T02:05:01.082Z,10.02
2023-01-03T02:07:27.623Z,10.12
2023-01-03T02:09:57.321Z,10.05
2023-01-03T02:13:08.179Z,10.31
2023-01-03T02:15:40.633Z,10.05
2023-01-03T02:18:14.796Z,9.38
2023-01-03T02:20:58.644Z,9.45
2023-01-03T02:24:07.126Z,10.11
2023-01-03T02:26:51.857Z,9.85
2023-01-03T02:29:43.204Z,9.39
2023-01-03T02:32:17.106Z,9.58
2023-01-03T02:35:02.328Z,9.27
2023-01-03T02:37:39.140Z,9.57
2023-01-03T02:40:17.585Z,9.90
2023-01-03T02:43:16.225Z,8.92
2023-01-03T02:45:51.352Z,9.44
2023-01-03T02:48:34.295Z,10.05
2023-01-03T02:51:07.184Z,9.28
2023-01-03T02:53:40.755Z,9.31
2023-01-03T02:56:14.034Z,9.62
2023-01-03T02:58:46.391Z,10.08
2023-01-03T03:01:14.931Z,9.03
2023-01-03T03:03:41.506Z,9.48
2023-01-03T03:06:20.507Z,9.70
2023-01-03T03:08:48.196Z,9.10
2023-01-03T03:11:34.055Z,9.64
2023-01-03T03:14:09.588Z,9.93
2023-01-03T03:16:48.728Z,9.39
2023-01-03T03:19:39.442Z,9.69
2023-01-03T03:22:46.178Z,9.43
2023-01-03T03:25:17.737Z,9.90
2023-01-03T03:28:06.940Z,9.87
2023-01-03T03:30:36.632Z,9.97
2023-01-03T03:33:06.438Z,9.98
2023-01-03T03:35:44.282Z,9.83
2023-01-03T03:38:14.082Z,9.85
2023-01-03T03:41:06.513Z,9.46
2023-01-03T03:44:01.614Z,9.72
2023-01-03T03:46:37.732Z,9.31
2023-01-03T03:49:35.825Z,9.45
2023-01-03T03:52:04.229Z,9.19
2023-01-03T03:54:35.075Z,9.45
2023-01-03T03:57:12.670Z,9.24
2023-01-03T03:59:44.174Z,8.91
2023-01-03T04:02:13.331Z,8.97
2023-01-03T04:04:44.439Z,9.40
2023-01-03T04:07:11.000Z,9.52
2023-01-03T04:09:37.425Z,9.43
2023-01-03T04:12:04.026Z,9.51
2023-01-03T04:14:30.537Z,9.42
2023-01-03T04:16:57.194Z,9.45
2023-01-03T04:19:23.746Z,9.42
2023-01-03T04:21:50.170Z,9.47
2023-01-03T04:24:16.683Z,9.53
2023-01-03T04:26:43.261Z,9.51
2023-01-03T04:29:09.710Z,9.52
2023-01-03T04:31:36.258Z,9.51
2023-01-03T04:34:02.887Z,9.51
2023-01-03T04:36:29.357Z,9.50
2023-01-03T04:38:56.081Z,9.54
2023-01-03T04:41:22.487Z,9.53
2023-01-03T04:44:04.723Z,9.56
2023-01-03T04:46:39.871Z,9.53
2023-01-03T04:49:09.620Z,9.61
2023-01-03T04:51:36.293Z,9.55
2023-01-03T04:54:03.848Z,9.57
2023-01-03T04:56:32.638Z,9.67
2023-01-03T04:58:59.648Z,9.59
2023-01-03T05:01:26.515Z,9.66
2023-01-03T05:03:58.001Z,9.77
2023-01-03T05:06:24.476Z,9.73
2023-01-03T05:08:51.015Z,9.71
2023-01-03T05:11:17.434Z,9.70
2023-01-03T05:13:44.078Z,9.74
2023-01-03T05:16:14.694Z,9.83
2023-01-03T05:18:42.267Z,9.82
2023-01-03T05:21:32.789Z,9.79
2023-01-03T05:24:18.079Z,9.81
2023-01-03T05:26:45.107Z,9.83
2023-01-03T05:29:13.275Z,9.80
2023-01-03T05:31:40.411Z,9.86
2023-01-03T05:34:06.944Z,9.91
2023-01-03T05:36:33.376Z,9.95
2023-01-03T05:38:59.870Z,9.93
2023-01-03T05:41:45.262Z,9.91
2023-01-03T05:44:11.714Z,9.71
2023-01-03T05:46:38.200Z,9.78
2023-01-03T05:49:04.745Z,9.94
2023-01-03T05:51:31.369Z,9.61
2023-01-03T05:53:57.921Z,9.94
2023-01-03T05:56:24.443Z,10.01
2023-01-03T05:58:50.868Z,9.99
2023-01-03T06:01:17.978Z,9.99
2023-01-03T06:03:46.326Z,9.43
2023-01-03T06:06:14.536Z,9.23
2023-01-03T06:08:41.534Z,9.41
2023-01-03T06:11:10.199Z,9.57
2023-01-03T06:13:37.183Z,9.21
2023-01-03T06:16:24.933Z,9.43
2023-01-03T06:18:51.626Z,9.88
2023-01-03T06:21:18.273Z,9.54
2023-01-03T06:23:47.607Z,9.37
2023-01-03T06:26:15.540Z,9.32
2023-01-03T06:28:42.413Z,9.73
2023-01-03T06:31:09.794Z,9.81
2023-01-03T06:33:36.756Z,9.85
2023-01-03T06:36:08.991Z,9.95
2023-01-03T06:38:35.857Z,10.04
2023-01-03T06:41:03.029Z,9.65
2023-01-03T06:43:30.280Z,9.98
2023-01-03T06:46:17.584Z,9.91
2023-01-03T06:49:03.199Z,9.88
2023-01-03T06:51:49.394Z,10.11
2023-01-03T06:54:22.286Z,9.99
2023-01-03T06:56:52.942Z,10.24
2023-01-03T06:59:22.005Z,9.75
2023-01-03T07:01:51.016Z,10.04
2023-01-03T07:04:18.312Z,9.91
2023-01-03T07:06:44.941Z,9.50
2023-01-03T07:09:11.505Z,9.84
2023-01-03T07:11:39.035Z,10.11
2023-01-03T07:14:07.499Z,9.98
2023-01-03T07:16:52.909Z,9.70
2023-01-03T07:19:20.171Z,9.97
2023-01-03T07:21:47.165Z,9.96
2023-01-03T07:24:16.243Z,10.13
2023-01-03T07:26:42.691Z,9.66
2023-01-03T07:29:10.288Z,10.08
2023-01-03T07:31:40.289Z,9.23
2023-01-03T07:34:07.106Z,9.19
2023-01-03T07:36:33.642Z,9.39
2023-01-03T07:39:00.180Z,9.20
2023-01-03T07:41:46.643Z,9.67
2023-01-03T07:44:13.126Z,9.20
2023-01-03T07:46:39.682Z,9.61
2023-01-03T07:49:11.568Z,9.30
2023-01-03T07:51:38.579Z,9.41
2023-01-03T07:54:05.041Z,9.66
2023-01-03T07:56:31.592Z,9.92
2023-01-03T07:58:58.057Z,9.64
2023-01-03T08:01:25.566Z,9.32
2023-01-03T08:03:52.627Z,9.21
2023-01-03T08:06:22.134Z,9.02
2023-01-03T08:09:08.871Z,9.24
2023-01-03T08:11:53.932Z,9.31
2023-01-03T08:14:25.630Z,9.33
2023-01-03T08:16:52.836Z,9.98
2023-01-03T08:19:19.255Z,9.69
2023-01-03T08:21:45.760Z,9.92
2023-01-03T08:24:12.229Z,9.81
2023-01-03T08:26:38.701Z,9.72
2023-01-03T08:32:10.737Z,9.90
2023-01-03T08:34:38.460Z,10.56
2023-01-03T08:37:12.925Z,10.42
2023-01-03T08:39:46.072Z,9.87
2023-01-03T08:42:15.661Z,10.06
2023-01-03T08:45:37.837Z,10.66
2023-01-03T08:48:07.911Z,9.99
2023-01-03T08:50:37.882Z,10.58
2023-01-03T08:53:36.035Z,10.78
2023-01-03T08:56:02.505Z,10.12
2023-01-03T08:58:28.942Z,10.41
2023-01-03T09:00:55.367Z,10.85
2023-01-03T09:03:21.865Z,11.32
2023-01-03T09:05:48.380Z,11.26
2023-01-03T09:08:15.941Z,11.51
2023-01-03T09:10:47.603Z,12.13
2023-01-03T09:13:14.511Z,12.70
2023-01-03T09:15:41.004Z,14.07
2023-01-03T09:18:07.662Z,14.97
2023-01-03T09:20:34.211Z,13.99
2023-01-03T09:23:00.623Z,13.81
2023-01-03T09:25:29.292Z,13.87
2023-01-03T09:27:59.716Z,13.97
2023-01-03T09:30:26.157Z,14.83
2023-01-03T09:32:52.862Z,14.64
2023-01-03T09:35:19.366Z,15.09
2023-01-03T09:37:49.126Z,14.67
2023-01-03T09:40:16.012Z,14.44
2023-01-03T09:43:01.014Z,14.02
2023-01-03T09:45:31.012Z,13.93
2023-01-03T09:47:58.729Z,15.08
2023-01-03T09:50:44.349Z,15.68
2023-01-03T09:53:42.206Z,14.37
2023-01-03T09:56:31.539Z,15.71
2023-01-03T09:59:19.392Z,16.11
2023-01-03T10:02:32.766Z,14.60
2023-01-03T10:05:37.745Z,12.02
2023-01-03T10:08:16.267Z,13.35
2023-01-03T10:11:01.904Z,12.73
2023-01-03T10:13:41.855Z,12.59
2023-01-03T10:16:24.838Z,12.15
2023-01-03T10:18:59.113Z,12.12
2023-01-03T10:21:40.822Z,11.79
2023-01-03T10:24:22.843Z,12.32
2023-01-03T10:26:59.603Z,12.09
2023-01-03T10:29:26.756Z,11.74
2023-01-03T10:32:11.780Z,12.47
2023-01-03T10:34:38.857Z,12.25
2023-01-03T10:37:19.332Z,12.39
2023-01-03T10:39:45.828Z,12.24
2023-01-03T10:42:19.483Z,11.35
2023-01-03T10:45:06.467Z,11.54
2023-01-03T10:47:32.892Z,11.27
2023-01-03T10:50:04.881Z,11.06
2023-01-03T10:53:04.095Z,11.37
2023-01-03T10:55:34.270Z,10.55
2023-01-03T10:58:16.756Z,10.74
2023-01-03T11:00:43.380Z,11.27
2023-01-03T11:03:17.044Z,11.22
2023-01-03T11:05:46.771Z,10.67
2023-01-03T11:08:22.419Z,10.22
2023-01-03T11:10:57.818Z,10.78
2023-01-03T11:13:27.023Z,11.59
2023-01-03T11:15:56.264Z,11.18
2023-01-03T11:18:23.911Z,10.75
2023-01-03T11:20:52.963Z,11.25
2023-01-03T11:23:38.010Z,10.55
2023-01-03T11:26:13.474Z,10.81
2023-01-03T11:28:45.809Z,11.03
2023-01-03T11:31:32.030Z,10.23
2023-01-03T11:34:23.299Z,10.84
2023-01-03T11:37:35.642Z,11.46
2023-01-03T11:40:11.668Z,11.34
2023-01-03T11:43:05.770Z,11.59
2023-01-03T11:45:59.519Z,11.40
2023-01-03T11:48:31.622Z,10.35
2023-01-03T11:51:13.230Z,10.95
2023-01-03T11:54:11.837Z,10.53
2023-01-03T11:56:44.629Z,10.90
2023-01-03T11:59:20.143Z,11.26
2023-01-03T12:02:26.504Z,11.21
2023-01-03T12:04:58.911Z,10.64
2023-01-03T12:07:48.276Z,10.95
2023-01-03T12:10:36.466Z,10.62
2023-01-03T12:13:26.942Z,11.11
2023-01-03T12:16:04.397Z,11.07
2023-01-03T12:18:51.567Z,10.86
2023-01-03T12:21:33.906Z,10.88
2023-01-03T12:24:00.333Z,11.53
2023-01-03T12:26:29.738Z,11.66
2023-01-03T12:29:11.655Z,11.33
2023-01-03T12:31:46.941Z,11.17
2023-01-03T12:34:13.367Z,11.14
2023-01-03T12:36:43.529Z,11.31
2023-01-03T12:39:45.175Z,11.48
2023-01-03T12:42:19.986Z,11.75
2023-01-03T12:44:48.885Z,11.70
2023-01-03T12:47:24.091Z,11.10
2023-01-03T12:50:05.588Z,11.26
2023-01-03T12:52:34.192Z,11.56
2023-01-03T12:55:43.034Z,11.80
2023-01-03T12:58:43.273Z,11.85
2023-01-03T13:01:18.004Z,11.20
2023-01-03T13:03:52.684Z,11.48
2023-01-03T13:06:25.541Z,11.62
2023-01-03T13:08:54.818Z,11.61
2023-01-03T13:11:33.379Z,12.01
2023-01-03T13:14:18.150Z,11.49
2023-01-03T13:17:08.884Z,11.26
2023-01-03T13:19:35.240Z,12.07
2023-01-03T13:22:19.062Z,12.09
2023-01-03T13:24:46.697Z,12.08
2023-01-03T13:27:19.341Z,12.13
2023-01-03T13:29:57.302Z,12.15
2023-01-03T13:32:23.738Z,11.91
2023-01-03T13:34:59.092Z,12.29
2023-01-03T13:37:48.046Z,12.15
2023-01-03T13:40:52.132Z,11.88
2023-01-03T13:43:21.743Z,12.11
2023-01-03T13:45:50.736Z,11.96
2023-01-03T13:48:27.092Z,12.09
2023-01-03T13:51:06.385Z,11.96
2023-01-03T13:53:39.720Z,12.29
2023-01-03T13:56:15.427Z,12.32
2023-01-03T13:58:49.168Z,12.43
2023-01-03T14:01:52.431Z,12.25
2023-01-03T14:04:52.937Z,12.43
2023-01-03T14:07:41.173Z,12.24
2023-01-03T14:10:53.018Z,12.53
2023-01-03T14:13:41.469Z,12.40
2023-01-03T14:16:27.604Z,12.64
2023-01-03T14:19:12.145Z,12.61
2023-01-03T14:22:28.114Z,12.66
2023-01-03T14:24:58.059Z,12.65
2023-01-03T14:27:39.233Z,12.64
2023-01-03T14:30:20.177Z,12.26
2023-01-03T14:32:47.143Z,11.83
2023-01-03T14:35:34.251Z,11.80
2023-01-03T14:38:06.539Z,12.40
2023-01-03T14:40:33.718Z,11.58
2023-01-03T14:43:04.657Z,12.20
2023-01-03T14:45:31.184Z,11.25
2023-01-03T14:47:58.026Z,11.75
2023-01-03T14:50:27.836Z,11.62
2023-01-03T14:52:57.381Z,12.48
2023-01-03T14:55:27.835Z,12.50
2023-01-03T14:57:55.302Z,12.47
2023-01-03T15:00:40.022Z,12.58
2023-01-03T15:03:12.951Z,11.67
2023-01-03T15:05:43.267Z,12.35
2023-01-03T15:08:12.409Z,11.87
2023-01-03T15:10:45.421Z,12.37
2023-01-03T15:13:30.316Z,12.68
2023-01-03T15:15:59.890Z,12.17
2023-01-03T15:18:33.932Z,12.33
2023-01-03T15:21:02.164Z,12.48
2023-01-03T15:23:34.737Z,12.60
2023-01-03T15:26:01.440Z,12.47
2023-01-03T15:28:48.523Z,12.43
2023-01-03T15:31:44.529Z,11.72
2023-01-03T15:34:14.072Z,12.42
2023-01-03T15:36:42.117Z,12.50
2023-01-03T15:39:20.439Z,12.51
2023-01-03T15:42:35.053Z,12.55
2023-01-03T15:44:53.707Z,12.60
2023-01-03T15:47:22.527Z,12.09
2023-01-03T15:49:52.941Z,11.90
2023-01-03T15:52:19.345Z,12.40
2023-01-03T15:54:46.100Z,12.46
2023-01-03T15:57:20.592Z,11.93
2023-01-03T15:59:57.004Z,11.63
2023-01-03T16:02:25.689Z,12.05
2023-01-03T16:04:54.102Z,12.33
2023-01-03T16:07:20.637Z,12.49
2023-01-03T16:09:47.323Z,12.35
2023-01-03T16:12:18.248Z,12.25
2023-01-03T16:14:49.080Z,12.43
2023-01-03T16:17:24.614Z,12.09
2023-01-03T16:19:52.210Z,12.04
2023-01-03T16:22:35.817Z,11.84
2023-01-03T16:25:04.896Z,11.78
2023-01-03T16:27:31.640Z,11.94
2023-01-03T16:29:58.378Z,11.89
2023-01-03T16:32:28.034Z,11.86
2023-01-03T16:35:01.072Z,11.98
2023-01-03T16:37:28.063Z,11.66
2023-01-03T16:39:54.947Z,11.75
2023-01-03T16:42:27.384Z,11.43
2023-01-03T16:44:54.396Z,11.38
2023-01-03T16:47:28.460Z,11.38
2023-01-03T16:50:04.625Z,11.44
2023-01-03T16:52:37.039Z,11.72
2023-01-03T16:55:26.976Z,11.78
2023-01-03T16:57:55.079Z,11.67
2023-01-03T17:00:31.224Z,11.30
2023-01-03T17:03:01.611Z,11.27
2023-01-03T17:05:32.936Z,11.52
2023-01-03T17:08:16.025Z,11.75
2023-01-03T17:10:46.684Z,11.51
2023-01-03T17:13:33.191Z,11.58
2023-01-03T17:16:01.315Z,11.22
2023-01-03T17:18:30.670Z,11.49
2023-01-03T17:21:00.599Z,11.40
2023-01-03T17:23:29.859Z,11.37
2023-01-03T17:25:56.685Z,11.40
2023-01-03T17:28:23.699Z,11.26
2023-01-03T17:30:54.291Z,11.18
2023-01-03T17:33:20.850Z,11.48
2023-01-03T17:35:47.769Z,11.13
2023-01-03T17:38:31.592Z,11.33
2023-01-03T17:40:58.101Z,11.30
2023-01-03T17:43:25.221Z,11.24
2023-01-03T17:46:22.572Z,11.06
2023-01-03T17:49:08.686Z,11.29
2023-01-03T17:51:35.221Z,11.18
2023-01-03T17:54:01.848Z,11.20
2023-01-03T17:56:29.518Z,11.17
2023-01-03T17:58:57.119Z,10.83
2023-01-03T18:01:23.956Z,10.83
2023-01-03T18:03:50.710Z,10.95
2023-01-03T18:06:23.319Z,10.92
2023-01-03T18:08:51.337Z,10.81
2023-01-03T18:11:20.497Z,10.86
2023-01-03T18:13:48.453Z,10.88
2023-01-03T18:16:18.775Z,10.57
2023-01-03T18:18:46.090Z,10.63
2023-01-03T18:21:33.304Z,10.61
2023-01-03T18:24:03.135Z,10.83
2023-01-03T18:26:36.265Z,10.81
2023-01-03T18:29:05.160Z,10.73
2023-01-03T18:31:31.994Z,10.78
2023-01-03T18:33:58.483Z,10.81
2023-01-03T18:36:27.756Z,10.77
2023-01-03T18:39:28.361Z,10.61
2023-01-03T18:42:15.803Z,10.35
2023-01-03T18:44:42.269Z,10.64
2023-01-03T18:47:12.701Z,10.64
2023-01-03T18:49:39.219Z,10.73
2023-01-03T18:52:06.282Z,10.38
2023-01-03T18:54:38.308Z,10.59
2023-01-03T18:57:04.804Z,10.62
2023-01-03T18:59:31.915Z,10.52
2023-01-03T19:01:58.516Z,10.57
2023-01-03T19:04:25.154Z,10.49
2023-01-03T19:06:52.395Z,10.46
2023-01-03T19:09:26.469Z,10.56
2023-01-03T19:11:54.527Z,10.69
2023-01-03T19:14:21.165Z,10.75
2023-01-03T19:16:48.178Z,10.78
2023-01-03T19:19:14.656Z,10.68
2023-01-03T19:21:44.141Z,10.69
2023-01-03T19:24:16.579Z,10.79
2023-01-03T19:27:02.742Z,10.78
2023-01-03T19:29:36.853Z,10.85
2023-01-03T19:32:18.477Z,10.80
2023-01-03T19:34:44.980Z,10.67
2023-01-03T19:37:11.985Z,10.64
2023-01-03T19:39:38.584Z,10.62
2023-01-03T19:42:25.886Z,10.58
2023-01-03T19:44:53.230Z,10.69
2023-01-03T19:47:20.671Z,10.47
2023-01-03T19:49:47.863Z,10.49
2023-01-03T19:52:14.987Z,10.48
2023-01-03T19:54:41.439Z,10.39
2023-01-03T19:57:21.088Z,10.23
2023-01-03T19:59:51.674Z,9.93
2023-01-03T20:02:35.609Z,10.26
2023-01-03T20:05:02.579Z,10.42
2023-01-03T20:07:29.120Z,10.47
2023-01-03T20:09:55.635Z,10.46
2023-01-03T20:12:25.930Z,10.13
2023-01-03T20:14:54.953Z,10.21
2023-01-03T20:17:23.818Z,10.07
2023-01-03T20:19:51.209Z,10.17
2023-01-03T20:22:53.571Z,10.07
2023-01-03T20:25:19.817Z,10.07
2023-01-03T20:27:47.839Z,10.23
2023-01-03T20:30:18.894Z,10.33
2023-01-03T20:32:45.358Z,10.08
2023-01-03T20:38:04.220Z,9.95
2023-01-03T20:40:30.666Z,10.14
2023-01-03T20:42:58.235Z,10.13
2023-01-03T20:45:24.695Z,9.91
2023-01-03T20:47:53.024Z,9.93
2023-01-03T20:50:26.840Z,9.77
2023-01-03T20:52:54.653Z,10.01
2023-01-03T20:55:25.276Z,10.00
2023-01-03T20:57:51.764Z,10.17
2023-01-03T21:00:26.878Z,10.02
2023-01-03T21:02:53.768Z,9.97
2023-01-03T21:05:21.066Z,10.03
2023-01-03T21:08:06.569Z,10.04
2023-01-03T21:10:37.876Z,10.02
2023-01-03T21:13:04.854Z,10.02
2023-01-03T21:15:31.464Z,9.92
2023-01-03T21:17:57.918Z,10.08
2023-01-03T21:20:27.879Z,10.22
2023-01-03T21:22:54.639Z,10.19
2023-01-03T21:25:32.698Z,10.00
2023-01-03T21:28:00.488Z,9.82
2023-01-03T21:30:28.993Z,9.91
2023-01-03T21:32:55.592Z,10.08
2023-01-03T21:35:23.689Z,9.93
2023-01-03T21:37:52.733Z,10.09
2023-01-03T21:40:20.510Z,9.66
2023-01-03T21:43:03.631Z,9.85
2023-01-03T21:45:34.862Z,9.82
2023-01-03T21:48:03.915Z,10.01
2023-01-03T21:50:31.248Z,9.99
2023-01-03T21:52:58.123Z,10.16
2023-01-03T21:55:25.076Z,9.78
2023-01-03T21:57:51.916Z,9.80
2023-01-03T22:00:18.682Z,9.62
2023-01-03T22:03:04.834Z,9.76
2023-01-03T22:05:31.694Z,9.77
2023-01-03T22:07:58.950Z,9.69
2023-01-03T22:10:25.507Z,9.90
2023-01-03T22:12:55.118Z,10.11
2023-01-03T22:15:23.379Z,9.97
2023-01-03T22:17:50.328Z,10.10
2023-01-03T22:20:18.427Z,10.06
2023-01-03T22:22:46.448Z,9.85
2023-01-03T22:25:16.300Z,9.92
2023-01-03T22:27:43.966Z,9.92
2023-01-03T22:30:17.282Z,9.87
2023-01-03T22:32:44.000Z,9.90
2023-01-03T22:35:12.079Z,9.55
2023-01-03T22:37:39.141Z,9.77
2023-01-03T22:40:12.179Z,9.57
2023-01-03T22:42:38.794Z,9.86
2023-01-03T22:45:06.467Z,9.74
2023-01-03T22:47:35.171Z,9.72
2023-01-03T22:50:01.621Z,9.92
2023-01-03T22:52:28.025Z,9.79
2023-01-03T22:54:54.436Z,9.97
2023-01-03T22:57:20.924Z,9.89
2023-01-03T22:59:47.417Z,9.69
2023-01-03T23:02:13.879Z,9.80
2023-01-03T23:04:40.471Z,9.93
2023-01-03T23:07:06.976Z,9.64
2023-01-03T23:09:33.400Z,10.10
2023-01-03T23:12:18.167Z,10.30
2023-01-03T23:14:44.675Z,10.13
2023-01-03T23:17:30.223Z,10.04
2023-01-03T23:19:56.643Z,10.11
2023-01-03T23:22:23.124Z,10.24
2023-01-03T23:24:49.536Z,10.46
2023-01-03T23:27:15.957Z,10.37
2023-01-03T23:29:42.381Z,10.41
2023-01-03T23:32:08.887Z,10.57
2023-01-03T23:34:35.295Z,10.02
2023-01-03T23:37:01.765Z,10.47
2023-01-03T23:39:28.421Z,10.14
2023-01-03T23:41:55.171Z,10.03
2023-01-03T23:44:21.616Z,9.93
2023-01-03T23:46:48.019Z,10.17
2023-01-03T23:49:16.158Z,10.44
2023-01-03T23:51:43.001Z,10.49
2023-01-03T23:54:10.057Z,10.17
2023-01-03T23:56:36.538Z,10.26
2023-01-03T23:59:03.952Z,10.06
